Terminal Aerodrome Forecast
Issued by NWS Cleveland, OH

Home | Current Version | Previous Version | Text Only | Print | Product List | Glossary Off
Versions: 1 2 3 4 5 6 7 8 9 10 11 12 13 14 15 16 17 18 19 20 21 22 23 24

630
FTUS41 KCLE 100327 AAA
TAFERI
TAF AMD
KERI 100327Z 1003/1024 26010G20KT 3SM -SN OVC010
      TEMPO 1004/1008 3/4SM -SN OVC008
     FM101100 26010G20KT 5SM -SN OVC012
     FM102000 27012G20KT P6SM BKN022=

USA.gov is the U.S. government's official web portal to all federal, state and local government web resources and services.